Alexis, Illinois
Current Conditions -  °F | °C
As of 4:35 PM on Thursday 23 Oct 2014 (Local Time) from KGBG Reporting Station
Overcast Overcast  
Wind Chill: 59°   Ceiling: 6500
Heat Index: 59°   Visibility: 10mi
Dew Point: 47°   Wind: 9mph
Humidity: 65%   Direction: 180°S
Pressure: 30.04"   Gusts: NA
Location:  41.06°N, 90.56°W
Report Text: KGBG 232135Z AUTO 18008KT 10SM BKN065 OVC085 15/09 A3004 RMK AO2 T01500085
Loading
Personal Weather Stations






























Interactive Weather Map
Tropical Storm Tracking
New forecast layout! Learn more

10-Day Weather Forecast

Advertisements
Track Severe Weather on mobile